createdAt,value
2023-05-18T00:02:20.993Z,59.39
2023-05-18T00:04:47.692Z,59.49
2023-05-18T00:07:14.704Z,59.46
2023-05-18T00:09:41.457Z,59.45
2023-05-18T00:12:09.788Z,59.60
2023-05-18T00:14:36.386Z,59.39
2023-05-18T00:17:03.063Z,58.82
2023-05-18T00:19:30.164Z,59.66
2023-05-18T00:21:57.211Z,59.48
2023-05-18T00:24:23.731Z,59.47
2023-05-18T00:26:50.299Z,59.45
2023-05-18T00:29:16.824Z,59.65
2023-05-18T00:31:45.302Z,59.40
2023-05-18T00:34:12.931Z,59.61
2023-05-18T00:36:39.717Z,59.53
2023-05-18T00:39:06.723Z,59.22
2023-05-18T00:41:33.482Z,59.40
2023-05-18T00:44:00.537Z,59.63
2023-05-18T00:46:27.736Z,59.40
2023-05-18T00:48:55.136Z,59.21
2023-05-18T00:51:23.303Z,59.47
2023-05-18T00:53:53.399Z,59.46
2023-05-18T00:56:23.692Z,59.28
2023-05-18T00:58:52.156Z,59.31
2023-05-18T01:01:19.307Z,59.18
2023-05-18T01:03:45.868Z,59.36
2023-05-18T01:06:14.666Z,59.52
2023-05-18T01:08:42.815Z,59.73
2023-05-18T01:11:22.398Z,59.31
2023-05-18T01:14:16.400Z,59.08
2023-05-18T01:16:54.339Z,59.66
2023-05-18T01:19:36.065Z,59.53
2023-05-18T01:22:23.722Z,59.72
2023-05-18T01:24:53.257Z,59.91
2023-05-18T01:27:21.474Z,60.62
2023-05-18T01:29:47.975Z,60.87
2023-05-18T01:32:21.359Z,60.64
2023-05-18T01:34:48.007Z,60.11
2023-05-18T01:37:14.588Z,60.77
2023-05-18T01:39:41.355Z,60.50
2023-05-18T01:42:12.058Z,60.29
2023-05-18T01:44:51.135Z,60.70
2023-05-18T01:47:18.006Z,61.21
2023-05-18T01:50:14.603Z,61.12
2023-05-18T01:52:44.963Z,60.79
2023-05-18T01:55:11.715Z,60.73
2023-05-18T01:57:39.256Z,60.88
2023-05-18T02:00:07.978Z,61.49
2023-05-18T02:02:34.592Z,60.92
2023-05-18T02:05:01.186Z,61.42
2023-05-18T02:07:27.744Z,61.28
2023-05-18T02:09:54.286Z,61.53
2023-05-18T02:12:20.962Z,61.46
2023-05-18T02:14:47.472Z,61.96
2023-05-18T02:17:13.984Z,62.19
2023-05-18T02:19:41.103Z,61.91
2023-05-18T02:22:08.108Z,62.17
2023-05-18T02:24:34.728Z,62.16
2023-05-18T02:27:01.432Z,62.53
2023-05-18T02:29:27.982Z,62.43
2023-05-18T02:31:54.603Z,62.53
2023-05-18T02:34:23.000Z,62.60
2023-05-18T02:36:49.475Z,62.25
2023-05-18T02:39:16.176Z,62.56
2023-05-18T02:41:42.712Z,62.46
2023-05-18T02:44:09.328Z,62.50
2023-05-18T02:46:35.898Z,62.59
2023-05-18T02:49:02.439Z,62.59
2023-05-18T02:51:29.910Z,62.59
2023-05-18T02:53:57.456Z,62.88
2023-05-18T02:56:24.745Z,63.20
2023-05-18T02:58:57.511Z,63.16
2023-05-18T03:01:27.392Z,63.26
2023-05-18T03:03:54.512Z,63.43
2023-05-18T03:06:26.375Z,63.39
2023-05-18T03:08:56.333Z,63.34
2023-05-18T03:11:23.533Z,63.03
2023-05-18T03:13:50.106Z,63.26
2023-05-18T03:16:16.740Z,63.23
2023-05-18T03:18:43.307Z,63.48
2023-05-18T03:21:10.022Z,63.56
2023-05-18T03:23:36.580Z,63.55
2023-05-18T03:26:03.864Z,63.79
2023-05-18T03:28:30.786Z,63.85
2023-05-18T03:30:57.697Z,64.41
2023-05-18T03:33:24.306Z,64.00
2023-05-18T03:35:52.184Z,63.83
2023-05-18T03:38:18.739Z,64.39
2023-05-18T03:40:45.408Z,63.93
2023-05-18T03:43:11.922Z,64.20
2023-05-18T03:45:38.436Z,63.91
2023-05-18T03:48:05.211Z,63.73
2023-05-18T03:50:32.132Z,64.47
2023-05-18T03:52:58.622Z,64.21
2023-05-18T03:55:26.257Z,64.30
2023-05-18T03:57:53.859Z,64.23
2023-05-18T04:00:20.365Z,64.02
2023-05-18T04:02:47.397Z,64.48
2023-05-18T04:05:14.029Z,64.24
2023-05-18T04:07:44.094Z,64.77
2023-05-18T04:10:12.037Z,64.48
2023-05-18T04:12:38.847Z,64.45
2023-05-18T04:15:05.773Z,64.09
2023-05-18T04:17:33.411Z,64.35
2023-05-18T04:19:59.981Z,63.93
2023-05-18T04:22:29.758Z,64.25
2023-05-18T04:24:57.278Z,64.01
2023-05-18T04:27:23.852Z,63.95
2023-05-18T04:29:50.399Z,64.32
2023-05-18T04:32:18.453Z,63.83
2023-05-18T04:34:49.476Z,63.76
2023-05-18T04:37:17.949Z,63.61
2023-05-18T04:39:44.517Z,63.47
2023-05-18T04:42:14.028Z,63.79
2023-05-18T04:44:40.644Z,63.53
2023-05-18T04:47:08.452Z,63.74
2023-05-18T04:49:35.038Z,63.50
2023-05-18T04:52:01.635Z,63.52
2023-05-18T04:54:32.140Z,63.59
2023-05-18T04:56:59.131Z,63.31
2023-05-18T04:59:26.527Z,63.08
2023-05-18T05:01:53.398Z,62.71
2023-05-18T05:04:20.920Z,62.54
2023-05-18T05:06:47.511Z,63.05
2023-05-18T05:09:14.762Z,62.74
2023-05-18T05:11:41.637Z,62.94
2023-05-18T05:14:08.134Z,62.53
2023-05-18T05:16:35.205Z,62.80
2023-05-18T05:19:01.880Z,62.48
2023-05-18T05:21:28.492Z,62.08
2023-05-18T05:23:55.008Z,62.49
2023-05-18T05:26:21.557Z,61.72
2023-05-18T05:28:48.049Z,61.49
2023-05-18T05:31:14.715Z,61.56
2023-05-18T05:33:41.362Z,60.85
2023-05-18T05:36:08.630Z,60.99
2023-05-18T05:38:35.180Z,60.90
2023-05-18T05:41:01.737Z,60.63
2023-05-18T05:43:28.243Z,59.98
2023-05-18T05:45:54.781Z,60.20
2023-05-18T05:48:21.373Z,60.24
2023-05-18T05:50:47.892Z,60.07
2023-05-18T05:53:17.877Z,59.70
2023-05-18T05:55:44.539Z,59.49
2023-05-18T05:58:11.063Z,59.03
2023-05-18T06:00:37.596Z,59.47
2023-05-18T06:03:04.188Z,59.17
2023-05-18T06:05:30.853Z,58.58
2023-05-18T06:07:57.678Z,58.35
2023-05-18T06:10:24.234Z,58.87
2023-05-18T06:12:50.906Z,58.24
2023-05-18T06:15:17.609Z,57.96
2023-05-18T06:17:44.182Z,58.18
2023-05-18T06:20:12.164Z,57.98
2023-05-18T06:22:38.734Z,57.65
2023-05-18T06:25:05.974Z,57.45
2023-05-18T06:27:33.001Z,57.21
2023-05-18T06:29:59.511Z,57.38
2023-05-18T06:32:26.181Z,57.31
2023-05-18T06:34:52.864Z,57.08
2023-05-18T06:37:21.097Z,56.89
2023-05-18T06:39:47.623Z,57.06
2023-05-18T06:42:14.127Z,56.71
2023-05-18T06:44:40.699Z,57.07
2023-05-18T06:47:07.471Z,56.84
2023-05-18T06:49:33.975Z,56.85
2023-05-18T06:52:00.564Z,56.28
2023-05-18T06:54:29.391Z,56.12
2023-05-18T06:56:55.900Z,55.95
2023-05-18T06:59:23.097Z,55.54
2023-05-18T07:01:49.662Z,54.82
2023-05-18T07:04:16.552Z,55.13
2023-05-18T07:06:43.257Z,54.70
2023-05-18T07:09:09.786Z,54.44
2023-05-18T07:11:36.326Z,53.95
2023-05-18T07:14:02.876Z,53.33
2023-05-18T07:16:29.557Z,53.59
2023-05-18T07:18:57.734Z,53.44
2023-05-18T07:21:25.006Z,52.87
2023-05-18T07:23:52.634Z,53.19
2023-05-18T07:26:19.716Z,52.29
2023-05-18T07:28:47.741Z,52.24
2023-05-18T07:31:16.308Z,52.14
2023-05-18T07:33:44.027Z,52.43
2023-05-18T07:36:10.884Z,51.67
2023-05-18T07:38:37.437Z,51.69
2023-05-18T07:41:03.967Z,50.76
2023-05-18T07:43:30.812Z,50.98
2023-05-18T07:45:57.305Z,50.54
2023-05-18T07:48:23.831Z,50.53
2023-05-18T07:50:50.410Z,49.89
2023-05-18T07:53:16.910Z,50.30
2023-05-18T07:55:43.498Z,50.06
2023-05-18T07:58:10.516Z,50.10
2023-05-18T08:00:37.452Z,49.72
2023-05-18T08:03:04.490Z,49.88
2023-05-18T08:05:31.213Z,49.36
2023-05-18T08:07:57.969Z,49.02
2023-05-18T08:10:24.644Z,48.71
2023-05-18T08:12:51.558Z,48.30
2023-05-18T08:15:18.082Z,48.49
2023-05-18T08:17:44.685Z,48.32
2023-05-18T08:20:11.635Z,48.08
2023-05-18T08:22:38.171Z,48.02
2023-05-18T08:25:05.037Z,47.77
2023-05-18T08:27:31.757Z,47.18
2023-05-18T08:29:58.338Z,47.40
2023-05-18T08:32:25.213Z,47.26
2023-05-18T08:34:51.775Z,47.78
2023-05-18T08:37:18.345Z,46.42
2023-05-18T08:39:46.085Z,46.62
2023-05-18T08:42:16.983Z,45.93
2023-05-18T08:44:53.689Z,45.85
2023-05-18T08:47:25.835Z,43.90
2023-05-18T08:49:52.763Z,43.70
2023-05-18T08:52:19.684Z,43.33
2023-05-18T08:54:46.175Z,42.78
2023-05-18T08:57:12.800Z,42.40
2023-05-18T08:59:42.642Z,43.29
2023-05-18T09:02:09.286Z,42.67
2023-05-18T09:04:35.898Z,43.30
2023-05-18T09:07:03.531Z,42.73
2023-05-18T09:09:30.067Z,43.34
2023-05-18T09:11:56.814Z,42.86
2023-05-18T09:14:25.956Z,43.46
2023-05-18T09:16:53.149Z,43.82
2023-05-18T09:19:19.731Z,44.08
2023-05-18T09:21:46.789Z,43.38
2023-05-18T09:24:13.891Z,43.00
2023-05-18T09:26:40.678Z,42.51
2023-05-18T09:29:17.440Z,43.39
2023-05-18T09:31:45.639Z,42.20
2023-05-18T09:34:12.939Z,40.98
2023-05-18T09:36:39.524Z,41.13
2023-05-18T09:39:12.237Z,41.20
2023-05-18T09:41:42.327Z,39.53
2023-05-18T09:44:12.629Z,40.12
2023-05-18T09:46:39.681Z,38.68
2023-05-18T09:49:06.586Z,38.19
2023-05-18T09:51:39.327Z,38.64
2023-05-18T09:54:07.452Z,38.88
2023-05-18T09:56:37.420Z,38.92
2023-05-18T09:59:13.931Z,40.65
2023-05-18T10:02:02.714Z,40.14
2023-05-18T10:04:39.760Z,40.55
2023-05-18T10:07:16.390Z,40.83
2023-05-18T10:09:44.436Z,40.60
2023-05-18T10:12:12.240Z,40.70
2023-05-18T10:14:41.227Z,41.63
2023-05-18T10:19:41.963Z,41.94
2023-05-18T10:22:09.121Z,41.86
2023-05-18T10:24:38.832Z,41.77
2023-05-18T10:27:09.297Z,41.50
2023-05-18T10:29:38.794Z,41.47
2023-05-18T10:32:07.898Z,40.80
2023-05-18T10:34:34.683Z,40.98
2023-05-18T10:37:04.138Z,40.87
2023-05-18T10:39:31.760Z,40.83
2023-05-18T10:41:58.374Z,41.34
2023-05-18T10:44:24.887Z,40.44
2023-05-18T10:46:51.605Z,39.77
2023-05-18T10:49:19.553Z,40.53
2023-05-18T10:51:47.282Z,40.39
2023-05-18T10:54:14.342Z,40.41
2023-05-18T10:56:45.994Z,40.52
2023-05-18T10:59:12.493Z,39.76
2023-05-18T11:01:39.511Z,40.30
2023-05-18T11:04:06.319Z,39.78
2023-05-18T11:06:34.998Z,39.21
2023-05-18T11:09:01.582Z,37.35
2023-05-18T11:11:30.083Z,37.03
2023-05-18T11:14:02.686Z,36.80
2023-05-18T11:16:35.912Z,36.86
2023-05-18T11:19:12.224Z,37.32
2023-05-18T11:21:41.621Z,35.89
2023-05-18T11:24:43.545Z,36.09
2023-05-18T11:27:16.272Z,36.32
2023-05-18T11:29:47.512Z,36.01
2023-05-18T11:32:32.948Z,34.90
2023-05-18T11:34:59.671Z,35.09
2023-05-18T11:37:47.136Z,34.99
2023-05-18T11:40:33.330Z,35.33
2023-05-18T11:42:59.848Z,33.10
2023-05-18T11:45:27.534Z,34.41
2023-05-18T11:47:56.734Z,33.89
2023-05-18T11:50:23.290Z,32.98
2023-05-18T11:52:52.267Z,34.08
2023-05-18T11:55:19.637Z,33.47
2023-05-18T11:57:52.546Z,34.25
2023-05-18T12:00:19.937Z,33.79
2023-05-18T12:02:47.335Z,34.27
2023-05-18T12:05:14.302Z,33.80
2023-05-18T12:07:41.229Z,33.36
2023-05-18T12:10:09.071Z,33.54
2023-05-18T12:12:35.684Z,33.93
2023-05-18T12:15:06.839Z,33.19
2023-05-18T12:17:45.960Z,32.60
2023-05-18T12:20:14.453Z,32.62
2023-05-18T12:22:41.712Z,32.52
2023-05-18T12:25:08.415Z,32.65
2023-05-18T12:27:42.641Z,33.02
2023-05-18T12:30:13.944Z,32.86
2023-05-18T12:32:44.523Z,33.36
2023-05-18T12:35:11.059Z,34.40
2023-05-18T12:37:45.500Z,34.83
2023-05-18T12:40:16.998Z,34.52
2023-05-18T12:42:59.805Z,34.07
2023-05-18T12:45:27.751Z,33.75
2023-05-18T12:47:55.478Z,33.93
2023-05-18T12:50:22.949Z,33.83
2023-05-18T12:52:50.258Z,33.92
2023-05-18T12:55:22.984Z,35.19
2023-05-18T12:58:02.639Z,33.90
2023-05-18T13:00:33.848Z,33.55
2023-05-18T13:03:13.736Z,33.53
2023-05-18T13:05:42.667Z,33.50
2023-05-18T13:08:09.451Z,33.98
2023-05-18T13:10:36.107Z,34.23
2023-05-18T13:13:05.298Z,34.95
2023-05-18T13:15:37.360Z,34.54
2023-05-18T13:18:09.880Z,34.33
2023-05-18T13:20:43.494Z,35.36
2023-05-18T13:23:11.476Z,34.10
2023-05-18T13:25:38.732Z,33.82
2023-05-18T13:28:05.500Z,34.43
2023-05-18T13:30:32.319Z,33.31
2023-05-18T13:32:59.800Z,32.17
2023-05-18T13:35:26.345Z,31.93
2023-05-18T13:37:52.992Z,30.99
2023-05-18T13:40:20.709Z,30.56
2023-05-18T13:42:47.408Z,28.96
2023-05-18T13:45:16.166Z,28.55
2023-05-18T13:47:43.417Z,28.31
2023-05-18T13:50:10.152Z,28.25
2023-05-18T13:52:36.878Z,27.82
2023-05-18T13:55:04.615Z,27.05
2023-05-18T13:57:32.129Z,25.06
2023-05-18T13:59:59.550Z,25.17
2023-05-18T14:02:26.538Z,26.11
2023-05-18T14:04:53.633Z,26.15
2023-05-18T14:07:20.131Z,26.54
2023-05-18T14:09:46.657Z,26.51
2023-05-18T14:12:13.172Z,24.49
2023-05-18T14:14:41.079Z,24.59
2023-05-18T14:17:09.849Z,23.28
2023-05-18T14:19:37.766Z,22.14
2023-05-18T14:22:04.445Z,22.45
2023-05-18T14:24:31.080Z,20.91
2023-05-18T14:26:57.729Z,21.75
2023-05-18T14:29:24.287Z,22.41
2023-05-18T14:31:52.071Z,23.50
2023-05-18T14:34:18.594Z,23.94
2023-05-18T14:36:45.177Z,24.46
2023-05-18T14:39:11.757Z,25.77
2023-05-18T14:41:38.260Z,26.06
2023-05-18T14:44:08.478Z,27.08
2023-05-18T14:46:35.827Z,27.83
2023-05-18T14:49:02.779Z,29.03
2023-05-18T14:51:29.411Z,28.52
2023-05-18T14:53:55.950Z,29.09
2023-05-18T14:56:22.733Z,28.70
2023-05-18T14:58:49.249Z,28.85
2023-05-18T15:01:15.801Z,27.98
2023-05-18T15:03:42.681Z,26.40
2023-05-18T15:06:09.404Z,26.23
2023-05-18T15:08:35.919Z,26.62
2023-05-18T15:11:02.480Z,27.33
2023-05-18T15:13:28.988Z,29.39
2023-05-18T15:15:55.629Z,30.83
2023-05-18T15:18:22.206Z,31.53
2023-05-18T15:20:48.722Z,33.73
2023-05-18T15:23:15.214Z,34.60
2023-05-18T15:25:41.810Z,35.73
2023-05-18T15:28:09.090Z,36.53
2023-05-18T15:30:35.603Z,37.66
2023-05-18T15:33:06.137Z,38.02
2023-05-18T15:35:34.761Z,38.91
2023-05-18T15:38:01.298Z,39.60
2023-05-18T15:40:27.959Z,40.05
2023-05-18T15:42:54.455Z,40.03
2023-05-18T15:45:21.046Z,40.20
2023-05-18T15:47:47.556Z,40.13
2023-05-18T15:50:14.107Z,40.54
2023-05-18T15:52:41.366Z,40.18
2023-05-18T15:55:08.318Z,39.63
2023-05-18T15:57:34.856Z,39.34
2023-05-18T16:00:01.469Z,38.98
2023-05-18T16:02:28.081Z,39.46
2023-05-18T16:04:54.640Z,37.37
2023-05-18T16:07:21.246Z,36.00
2023-05-18T16:09:48.313Z,34.37
2023-05-18T16:12:14.843Z,34.35
2023-05-18T16:14:41.414Z,34.50
2023-05-18T16:17:08.033Z,35.10
2023-05-18T16:19:35.729Z,35.11
2023-05-18T16:22:02.252Z,34.26
2023-05-18T16:24:28.762Z,33.32
2023-05-18T16:26:55.348Z,32.08
2023-05-18T16:29:21.838Z,31.44
2023-05-18T16:31:48.456Z,31.37
2023-05-18T16:34:15.023Z,29.20
2023-05-18T16:36:41.555Z,30.11
2023-05-18T16:39:08.147Z,31.20
2023-05-18T16:41:34.667Z,32.77
2023-05-18T16:44:01.267Z,34.19
2023-05-18T16:46:27.844Z,35.75
2023-05-18T16:48:54.877Z,36.46
2023-05-18T16:51:21.373Z,37.46
2023-05-18T16:53:47.926Z,38.19
2023-05-18T16:56:14.530Z,39.41
2023-05-18T16:58:41.144Z,39.94
2023-05-18T17:01:16.104Z,40.77
2023-05-18T17:03:53.080Z,41.80
2023-05-18T17:06:21.244Z,42.55
2023-05-18T17:08:47.936Z,42.62
2023-05-18T17:11:14.489Z,42.90
2023-05-18T17:13:41.012Z,43.34
2023-05-18T17:16:07.601Z,43.42
2023-05-18T17:18:34.165Z,43.88
2023-05-18T17:21:00.658Z,44.50
2023-05-18T17:23:27.233Z,44.92
2023-05-18T17:26:00.992Z,45.40
2023-05-18T17:28:32.235Z,45.40
2023-05-18T17:30:58.782Z,45.41
2023-05-18T17:33:25.505Z,45.25
2023-05-18T17:35:52.069Z,45.48
2023-05-18T17:38:18.661Z,46.26
2023-05-18T17:40:45.162Z,46.13
2023-05-18T17:43:11.745Z,47.01
2023-05-18T17:45:38.316Z,47.08
2023-05-18T17:48:05.318Z,47.43
2023-05-18T17:50:31.992Z,47.97
2023-05-18T17:52:58.678Z,48.10
2023-05-18T17:55:25.185Z,49.25
2023-05-18T17:57:51.692Z,49.27
2023-05-18T18:00:18.621Z,49.88
2023-05-18T18:02:45.241Z,50.10
2023-05-18T18:05:11.952Z,50.39
2023-05-18T18:07:39.166Z,50.47
2023-05-18T18:10:07.006Z,50.84
2023-05-18T18:12:33.509Z,50.58
2023-05-18T18:15:00.037Z,51.07
2023-05-18T18:17:26.621Z,51.23
2023-05-18T18:19:53.160Z,51.32
2023-05-18T18:22:19.770Z,51.57
2023-05-18T18:24:46.283Z,51.60
2023-05-18T18:27:12.791Z,52.01
2023-05-18T18:29:39.339Z,51.71
2023-05-18T18:32:06.138Z,52.12
2023-05-18T18:34:32.634Z,52.14
2023-05-18T18:36:59.291Z,52.20
2023-05-18T18:39:25.825Z,52.61
2023-05-18T18:41:52.367Z,52.66
2023-05-18T18:44:18.877Z,52.90
2023-05-18T18:46:45.448Z,53.17
2023-05-18T18:49:12.151Z,52.68
2023-05-18T18:51:38.764Z,52.90
2023-05-18T18:54:05.751Z,53.42
2023-05-18T18:56:32.298Z,53.48
2023-05-18T18:58:58.813Z,53.24
2023-05-18T19:01:25.555Z,53.08
2023-05-18T19:03:52.751Z,52.49
2023-05-18T19:06:20.214Z,52.62
2023-05-18T19:08:46.787Z,53.78
2023-05-18T19:11:13.329Z,53.75
2023-05-18T19:13:39.896Z,53.87
2023-05-18T19:16:06.672Z,54.08
2023-05-18T19:18:33.262Z,54.01
2023-05-18T19:21:01.217Z,54.21
2023-05-18T19:23:28.127Z,54.31
2023-05-18T19:25:54.818Z,54.67
2023-05-18T19:28:21.647Z,54.64
2023-05-18T19:30:48.179Z,54.60
2023-05-18T19:33:14.779Z,54.71
2023-05-18T19:35:41.359Z,54.38
2023-05-18T19:38:07.964Z,54.13
2023-05-18T19:40:34.539Z,54.32
2023-05-18T19:43:01.592Z,54.45
2023-05-18T19:45:28.164Z,54.14
2023-05-18T19:47:54.823Z,53.98
2023-05-18T19:50:21.417Z,53.77
2023-05-18T19:52:49.431Z,54.22
2023-05-18T19:55:17.040Z,54.41
2023-05-18T19:57:43.562Z,54.24
2023-05-18T20:00:11.037Z,54.27
2023-05-18T20:02:37.814Z,54.84
2023-05-18T20:05:06.730Z,54.33
2023-05-18T20:07:33.820Z,54.53
2023-05-18T20:10:00.392Z,54.58
2023-05-18T20:12:28.352Z,55.18
2023-05-18T20:14:54.873Z,55.43
2023-05-18T20:17:21.560Z,54.83
2023-05-18T20:19:50.983Z,55.45
2023-05-18T20:22:17.912Z,55.13
2023-05-18T20:24:44.688Z,55.25
2023-05-18T20:27:12.957Z,55.53
2023-05-18T20:29:39.552Z,54.67
2023-05-18T20:32:06.575Z,54.81
2023-05-18T20:34:33.079Z,55.09
2023-05-18T20:36:59.588Z,54.81
2023-05-18T20:39:26.162Z,54.99
2023-05-18T20:41:53.599Z,55.35
2023-05-18T20:44:22.958Z,55.51
2023-05-18T20:46:49.775Z,55.36
2023-05-18T20:49:16.297Z,54.95
2023-05-18T20:51:42.795Z,56.07
2023-05-18T20:54:09.304Z,55.69
2023-05-18T20:56:35.907Z,55.06
2023-05-18T20:59:04.170Z,55.30
2023-05-18T21:01:38.741Z,55.52
2023-05-18T21:04:05.828Z,55.78
2023-05-18T21:06:32.462Z,56.35
2023-05-18T21:08:58.998Z,55.49
2023-05-18T21:11:26.112Z,55.26
2023-05-18T21:13:52.643Z,55.80
2023-05-18T21:16:19.220Z,55.75
2023-05-18T21:18:45.879Z,55.31
2023-05-18T21:21:12.416Z,55.30
2023-05-18T21:23:38.990Z,55.17
2023-05-18T21:26:05.531Z,56.07
2023-05-18T21:28:32.062Z,56.31
2023-05-18T21:30:58.632Z,55.79
2023-05-18T21:33:25.192Z,55.93
2023-05-18T21:35:51.775Z,56.07
2023-05-18T21:38:18.340Z,56.11
2023-05-18T21:40:44.962Z,56.56
2023-05-18T21:43:12.554Z,56.21
2023-05-18T21:45:39.103Z,56.35
2023-05-18T21:48:06.026Z,56.13
2023-05-18T21:50:35.617Z,56.25
2023-05-18T21:53:05.509Z,55.83
2023-05-18T21:55:32.170Z,56.10
2023-05-18T21:57:59.080Z,56.20
2023-05-18T22:00:26.025Z,56.07
2023-05-18T22:02:52.622Z,56.46
2023-05-18T22:05:19.185Z,56.23
2023-05-18T22:07:45.906Z,56.50
2023-05-18T22:10:12.508Z,56.47
2023-05-18T22:12:41.048Z,56.62
2023-05-18T22:15:08.687Z,56.80
2023-05-18T22:17:36.571Z,57.01
2023-05-18T22:20:05.952Z,57.26
2023-05-18T22:22:32.472Z,57.49
2023-05-18T22:24:58.962Z,57.10
2023-05-18T22:27:25.549Z,57.14
2023-05-18T22:29:52.073Z,57.44
2023-05-18T22:32:19.249Z,57.50
2023-05-18T22:34:45.859Z,57.62
2023-05-18T22:37:12.783Z,57.39
2023-05-18T22:39:39.297Z,57.52
2023-05-18T22:42:05.991Z,57.62
2023-05-18T22:44:32.511Z,57.11
2023-05-18T22:46:59.158Z,57.46
2023-05-18T22:49:26.124Z,57.54
2023-05-18T22:51:52.748Z,57.64
2023-05-18T22:54:19.401Z,57.73
2023-05-18T22:56:45.910Z,57.52
2023-05-18T22:59:12.487Z,57.90
2023-05-18T23:01:39.249Z,57.64
2023-05-18T23:04:06.312Z,57.85
2023-05-18T23:06:32.804Z,58.02
2023-05-18T23:09:00.477Z,58.15
2023-05-18T23:11:28.496Z,57.95
2023-05-18T23:13:55.243Z,58.04
2023-05-18T23:16:24.126Z,58.10
2023-05-18T23:18:53.678Z,58.21
2023-05-18T23:21:21.651Z,58.67
2023-05-18T23:23:48.241Z,58.70
2023-05-18T23:26:14.778Z,58.59
2023-05-18T23:28:41.295Z,58.44
2023-05-18T23:31:07.786Z,58.67
2023-05-18T23:33:34.552Z,58.50
2023-05-18T23:36:04.140Z,58.63
2023-05-18T23:38:34.722Z,58.81
2023-05-18T23:41:04.708Z,58.91
2023-05-18T23:43:31.415Z,58.69
2023-05-18T23:45:59.697Z,58.72
2023-05-18T23:48:27.549Z,59.02
2023-05-18T23:50:54.130Z,58.69
2023-05-18T23:53:20.879Z,58.65
2023-05-18T23:55:47.394Z,59.01
2023-05-18T23:58:13.935Z,58.67
